createdAt,value
2022-08-31T00:03:53.823Z,18.80
2022-08-31T00:07:55.853Z,18.80
2022-08-31T00:11:57.636Z,18.70
2022-08-31T00:15:59.635Z,18.70
2022-08-31T00:20:01.463Z,18.70
2022-08-31T00:24:03.568Z,18.50
2022-08-31T00:28:06.287Z,18.40
2022-08-31T00:32:08.097Z,18.40
2022-08-31T00:36:12.988Z,18.30
2022-08-31T00:40:15.021Z,18.30
2022-08-31T00:44:17.143Z,18.10
2022-08-31T00:48:18.883Z,18.00
2022-08-31T00:52:24.794Z,18.00
2022-08-31T00:56:27.281Z,17.90
2022-08-31T01:00:30.896Z,17.90
2022-08-31T01:04:33.183Z,17.80
2022-08-31T01:08:34.969Z,17.70
2022-08-31T01:12:37.053Z,17.70
2022-08-31T01:16:43.629Z,17.60
2022-08-31T01:21:20.928Z,17.50
2022-08-31T01:25:23.092Z,17.50
2022-08-31T01:29:24.845Z,17.50
2022-08-31T01:33:26.976Z,17.40
2022-08-31T01:37:30.313Z,17.50
2022-08-31T01:41:32.309Z,17.40
2022-08-31T01:45:34.100Z,17.30
2022-08-31T01:49:35.803Z,17.30
2022-08-31T01:53:37.735Z,17.30
2022-08-31T01:57:40.485Z,17.20
2022-08-31T02:01:46.108Z,17.20
2022-08-31T02:05:47.877Z,17.10
2022-08-31T02:09:49.849Z,17.10
2022-08-31T02:13:53.648Z,17.10
2022-08-31T02:17:55.417Z,17.00
2022-08-31T02:21:57.191Z,17.00
2022-08-31T02:25:59.025Z,17.00
2022-08-31T02:30:00.948Z,17.00
2022-08-31T02:34:03.166Z,17.10
2022-08-31T02:38:06.149Z,17.10
2022-08-31T02:42:08.331Z,17.00
2022-08-31T02:46:10.171Z,17.10
2022-08-31T02:50:11.942Z,17.10
2022-08-31T02:54:13.896Z,17.10
2022-08-31T02:58:19.547Z,17.10
2022-08-31T03:02:31.865Z,17.00
2022-08-31T03:06:34.269Z,17.10
2022-08-31T03:10:36.068Z,17.00
2022-08-31T03:14:38.030Z,17.00
2022-08-31T03:18:39.791Z,16.90
2022-08-31T03:22:41.731Z,16.90
2022-08-31T03:26:47.747Z,16.90
2022-08-31T03:30:49.714Z,16.80
2022-08-31T03:34:59.456Z,16.70
2022-08-31T03:39:01.410Z,16.70
2022-08-31T03:43:03.167Z,16.70
2022-08-31T03:47:04.998Z,16.60
2022-08-31T03:51:07.421Z,16.60
2022-08-31T03:55:10.828Z,16.50
2022-08-31T03:59:13.949Z,16.50
2022-08-31T04:03:15.762Z,16.40
2022-08-31T04:07:18.580Z,16.40
2022-08-31T04:11:25.542Z,16.40
2022-08-31T04:15:42.268Z,16.30
2022-08-31T04:19:44.025Z,16.20
2022-08-31T04:23:46.714Z,16.20
2022-08-31T04:27:50.237Z,16.10
2022-08-31T04:31:52.543Z,16.10
2022-08-31T04:35:54.283Z,16.00
2022-08-31T04:39:59.084Z,16.00
2022-08-31T04:44:02.615Z,15.90
2022-08-31T04:48:04.443Z,15.90
2022-08-31T04:52:08.268Z,15.80
2022-08-31T04:56:19.046Z,15.80
2022-08-31T05:00:21.832Z,15.80
2022-08-31T05:04:28.913Z,15.80
2022-08-31T05:08:30.931Z,15.80
2022-08-31T05:12:40.028Z,15.70
2022-08-31T05:16:42.689Z,15.70
2022-08-31T05:20:44.379Z,15.70
2022-08-31T05:24:48.087Z,15.70
2022-08-31T05:28:50.016Z,15.70
2022-08-31T05:32:51.799Z,15.70
2022-08-31T05:36:56.655Z,15.80
2022-08-31T05:41:01.459Z,15.80
2022-08-31T05:45:03.376Z,15.80
2022-08-31T05:49:06.855Z,15.80
2022-08-31T05:53:09.836Z,15.90
2022-08-31T05:57:11.903Z,15.90
2022-08-31T06:01:34.601Z,16.00
2022-08-31T06:05:36.451Z,16.00
2022-08-31T06:09:38.954Z,16.10
2022-08-31T06:13:42.641Z,16.10
2022-08-31T06:17:44.784Z,16.10
2022-08-31T06:21:50.011Z,16.10
2022-08-31T06:26:01.068Z,16.10
2022-08-31T06:30:04.954Z,16.10
2022-08-31T06:34:09.179Z,16.20
2022-08-31T06:38:10.926Z,16.20
2022-08-31T06:42:12.666Z,16.30
2022-08-31T06:46:16.401Z,16.40
2022-08-31T06:50:41.253Z,16.50
2022-08-31T06:54:43.160Z,16.60
2022-08-31T06:58:45.158Z,16.70
2022-08-31T07:07:17.655Z,17.00
2022-08-31T07:11:23.196Z,17.20
2022-08-31T07:15:24.927Z,17.30
2022-08-31T07:19:27.085Z,17.40
2022-08-31T07:23:28.871Z,17.40
2022-08-31T07:27:30.635Z,17.40
2022-08-31T07:31:44.614Z,17.50
2022-08-31T07:35:46.285Z,17.50
2022-08-31T07:40:08.251Z,17.60
2022-08-31T07:44:11.437Z,17.70
2022-08-31T07:48:13.131Z,17.60
2022-08-31T07:52:16.139Z,17.70
2022-08-31T07:56:19.151Z,17.80
2022-08-31T08:00:35.927Z,17.80
2022-08-31T08:04:44.038Z,17.90
2022-08-31T08:09:01.616Z,18.00
2022-08-31T08:13:09.079Z,18.10
2022-08-31T08:17:10.820Z,18.20
2022-08-31T08:21:13.583Z,18.30
2022-08-31T08:25:16.616Z,18.40
2022-08-31T08:29:19.568Z,18.60
2022-08-31T08:33:21.720Z,18.70
2022-08-31T08:37:41.066Z,18.70
2022-08-31T08:41:47.420Z,18.90
2022-08-31T08:45:52.944Z,19.20
2022-08-31T08:49:57.019Z,19.50
2022-08-31T08:54:04.914Z,19.60
2022-08-31T08:58:10.336Z,19.70
2022-08-31T09:02:22.517Z,19.70
2022-08-31T09:06:54.547Z,19.80
2022-08-31T09:11:17.475Z,19.90
2022-08-31T09:15:37.818Z,20.00
2022-08-31T09:19:58.517Z,20.50
2022-08-31T09:24:12.963Z,21.00
2022-08-31T09:28:16.328Z,21.50
2022-08-31T09:32:24.438Z,21.40
2022-08-31T09:36:40.758Z,21.80
2022-08-31T09:40:48.385Z,22.30
2022-08-31T09:44:50.953Z,23.10
2022-08-31T09:48:58.622Z,24.00
2022-08-31T09:53:38.755Z,24.10
2022-08-31T09:57:58.890Z,24.60
2022-08-31T10:02:02.399Z,25.00
2022-08-31T10:06:39.314Z,24.70
2022-08-31T10:10:43.631Z,25.20
2022-08-31T10:14:55.007Z,25.30
2022-08-31T10:19:06.327Z,25.80
2022-08-31T10:23:35.544Z,25.20
2022-08-31T10:27:43.401Z,25.50
2022-08-31T10:31:49.402Z,25.50
2022-08-31T10:35:57.469Z,25.00
2022-08-31T10:40:06.780Z,25.30
2022-08-31T10:44:36.231Z,24.80
2022-08-31T10:48:41.004Z,24.90
2022-08-31T10:53:15.456Z,23.80
2022-08-31T10:57:51.694Z,24.70
2022-08-31T11:02:21.785Z,24.60
2022-08-31T11:06:44.915Z,24.00
2022-08-31T11:10:56.398Z,24.10
2022-08-31T11:15:45.766Z,23.90
2022-08-31T11:20:11.245Z,23.80
2022-08-31T11:24:22.127Z,23.80
2022-08-31T11:28:45.268Z,23.90
2022-08-31T11:33:07.499Z,24.20
2022-08-31T11:37:09.699Z,24.20
2022-08-31T11:41:31.379Z,24.40
2022-08-31T11:45:37.224Z,24.50
2022-08-31T11:49:51.811Z,24.30
2022-08-31T11:53:55.286Z,24.60
2022-08-31T11:58:06.069Z,25.00
2022-08-31T12:02:19.931Z,24.30
2022-08-31T12:06:25.136Z,24.10
2022-08-31T12:10:50.779Z,23.90
2022-08-31T12:15:12.604Z,24.00
2022-08-31T12:20:01.377Z,23.80
2022-08-31T12:24:29.826Z,23.70
2022-08-31T12:29:11.223Z,23.80
2022-08-31T12:33:17.792Z,23.80
2022-08-31T12:37:26.431Z,24.10
2022-08-31T12:41:29.002Z,23.90
2022-08-31T12:46:03.160Z,23.70
2022-08-31T12:50:20.356Z,24.10
2022-08-31T12:54:56.561Z,24.20
2022-08-31T12:59:01.330Z,23.80
2022-08-31T13:03:26.403Z,24.10
2022-08-31T13:07:41.733Z,24.30
2022-08-31T13:11:43.961Z,23.90
2022-08-31T13:16:07.853Z,23.60
2022-08-31T13:20:09.723Z,23.40
2022-08-31T13:24:12.205Z,23.60
2022-08-31T13:28:14.165Z,24.10
2022-08-31T13:32:32.149Z,24.10
2022-08-31T13:36:58.232Z,24.00
2022-08-31T13:41:00.100Z,24.00
2022-08-31T13:45:08.045Z,23.90
2022-08-31T13:49:32.172Z,23.60
2022-08-31T13:53:45.807Z,23.50
2022-08-31T13:58:22.550Z,23.40
2022-08-31T14:02:30.856Z,23.20
2022-08-31T14:06:39.155Z,23.20
2022-08-31T14:10:46.243Z,23.20
2022-08-31T14:14:49.293Z,23.50
2022-08-31T14:18:55.855Z,23.90
2022-08-31T14:22:57.579Z,24.00
2022-08-31T14:27:00.199Z,24.10
2022-08-31T14:31:12.297Z,24.40
2022-08-31T14:35:14.277Z,24.70
2022-08-31T14:39:16.110Z,25.20
2022-08-31T14:43:18.912Z,25.40
2022-08-31T14:47:21.288Z,25.30
2022-08-31T14:51:23.932Z,24.70
2022-08-31T14:55:28.498Z,24.30
2022-08-31T14:59:30.830Z,24.20
2022-08-31T15:03:34.973Z,24.00
2022-08-31T15:07:40.235Z,23.90
2022-08-31T15:11:42.747Z,23.80
2022-08-31T15:15:47.519Z,23.70
2022-08-31T15:19:51.422Z,23.50
2022-08-31T15:23:53.100Z,23.50
2022-08-31T15:27:54.779Z,23.40
2022-08-31T15:31:58.479Z,23.40
2022-08-31T15:36:07.349Z,23.40
2022-08-31T15:40:10.004Z,23.50
2022-08-31T15:44:12.922Z,23.60
2022-08-31T15:48:34.342Z,23.60
2022-08-31T15:52:37.072Z,23.70
2022-08-31T15:56:39.939Z,23.80
2022-08-31T16:00:42.066Z,23.80
2022-08-31T16:04:44.012Z,23.70
2022-08-31T16:08:47.878Z,23.60
2022-08-31T16:12:51.456Z,23.50
2022-08-31T16:16:53.257Z,23.60
2022-08-31T16:20:55.879Z,23.50
2022-08-31T16:24:57.994Z,23.30
2022-08-31T16:29:01.431Z,23.10
2022-08-31T16:33:03.185Z,23.10
2022-08-31T16:37:09.084Z,23.20
2022-08-31T16:41:11.343Z,23.20
2022-08-31T16:45:13.111Z,23.20
2022-08-31T16:49:33.491Z,23.10
2022-08-31T16:53:35.199Z,23.00
2022-08-31T16:57:37.825Z,23.00
2022-08-31T17:01:43.704Z,23.10
2022-08-31T17:05:46.893Z,22.80
2022-08-31T17:09:48.814Z,22.70
2022-08-31T17:13:58.017Z,22.60
2022-08-31T17:17:59.762Z,22.50
2022-08-31T17:22:04.140Z,22.50
2022-08-31T17:26:06.686Z,22.60
2022-08-31T17:30:08.898Z,22.40
2022-08-31T17:34:23.795Z,22.30
2022-08-31T17:38:25.976Z,22.20
2022-08-31T17:42:28.176Z,22.20
2022-08-31T17:46:30.625Z,22.10
2022-08-31T17:50:32.459Z,22.00
2022-08-31T17:54:39.354Z,22.00
2022-08-31T17:58:41.072Z,21.90
2022-08-31T18:02:43.398Z,21.80
2022-08-31T18:06:46.398Z,21.80
2022-08-31T18:10:52.356Z,21.70
2022-08-31T18:14:54.102Z,21.70
2022-08-31T18:18:55.819Z,21.70
2022-08-31T18:22:57.571Z,21.50
2022-08-31T18:27:03.099Z,21.50
2022-08-31T18:31:07.512Z,21.40
2022-08-31T18:35:13.593Z,21.30
2022-08-31T18:39:40.758Z,21.10
2022-08-31T18:44:01.434Z,21.10
2022-08-31T18:52:27.972Z,21.00
2022-08-31T18:56:29.878Z,20.90
2022-08-31T19:00:32.889Z,20.80
2022-08-31T19:04:35.634Z,20.70
2022-08-31T19:08:37.393Z,20.60
2022-08-31T19:12:39.126Z,20.50
2022-08-31T19:16:42.232Z,20.40
2022-08-31T19:20:44.425Z,20.40
2022-08-31T19:24:46.154Z,20.30
2022-08-31T19:28:50.048Z,20.30
2022-08-31T19:32:51.984Z,20.20
2022-08-31T19:36:55.406Z,20.20
2022-08-31T19:40:59.266Z,20.10
2022-08-31T19:49:23.872Z,20.00
2022-08-31T19:53:25.960Z,20.00
2022-08-31T19:57:27.924Z,19.90
2022-08-31T20:01:33.858Z,19.90
2022-08-31T20:05:42.027Z,19.90
2022-08-31T20:09:43.748Z,19.80
2022-08-31T20:13:45.563Z,19.80
2022-08-31T20:17:47.982Z,19.60
2022-08-31T20:21:52.871Z,19.60
2022-08-31T20:25:54.591Z,19.50
2022-08-31T20:29:56.749Z,19.50
2022-08-31T20:33:59.780Z,19.50
2022-08-31T20:38:01.510Z,19.50
2022-08-31T20:42:04.227Z,19.50
2022-08-31T20:46:08.662Z,19.40
2022-08-31T20:50:11.406Z,19.40
2022-08-31T20:54:13.598Z,19.40
2022-08-31T20:58:15.355Z,19.20
2022-08-31T21:02:19.817Z,19.30
2022-08-31T21:06:25.306Z,19.10
2022-08-31T21:10:37.927Z,19.10
2022-08-31T21:14:40.817Z,19.00
2022-08-31T21:18:42.641Z,18.90
2022-08-31T21:22:44.527Z,18.90
2022-08-31T21:26:47.232Z,18.80
2022-08-31T21:30:50.299Z,18.70
2022-08-31T21:34:56.231Z,18.60
2022-08-31T21:38:57.947Z,18.60
2022-08-31T21:43:01.989Z,18.60
2022-08-31T21:47:04.319Z,18.50
2022-08-31T21:51:28.274Z,18.50
2022-08-31T21:55:29.963Z,18.50
2022-08-31T21:59:35.305Z,18.50
2022-08-31T22:03:36.980Z,18.40
2022-08-31T22:07:40.034Z,18.30
2022-08-31T22:11:45.833Z,18.30
2022-08-31T22:15:48.280Z,18.20
2022-08-31T22:19:50.564Z,18.10
2022-08-31T22:23:56.019Z,18.10
2022-08-31T22:28:00.280Z,18.00
2022-08-31T22:32:08.699Z,17.90
2022-08-31T22:36:31.593Z,17.90
2022-08-31T22:40:37.774Z,17.80
2022-08-31T22:44:40.403Z,17.70
2022-08-31T22:48:49.440Z,17.60
2022-08-31T22:52:51.806Z,17.60
2022-08-31T22:56:54.071Z,17.50
2022-08-31T23:00:55.799Z,17.50
2022-08-31T23:04:58.000Z,17.40
2022-08-31T23:09:02.457Z,17.40
2022-08-31T23:13:04.572Z,17.40
2022-08-31T23:17:08.943Z,17.40
2022-08-31T23:21:10.768Z,17.40
2022-08-31T23:25:13.972Z,17.30
2022-08-31T23:29:18.284Z,17.30
2022-08-31T23:33:19.971Z,17.20
2022-08-31T23:37:25.769Z,17.10
2022-08-31T23:41:29.535Z,17.00
2022-08-31T23:45:33.154Z,16.90
2022-08-31T23:49:35.343Z,16.80
2022-08-31T23:53:38.036Z,16.70
2022-08-31T23:57:40.055Z,16.60
